createdAt,value
2018-07-28T00:02:06.083Z,97329.00
2018-07-28T00:06:08.335Z,97330.00
2018-07-28T00:10:12.443Z,97327.00
2018-07-28T00:14:14.628Z,97321.00
2018-07-28T00:18:16.818Z,97318.00
2018-07-28T00:22:19.019Z,97331.00
2018-07-28T00:26:21.186Z,97324.00
2018-07-28T00:30:23.360Z,97323.00
2018-07-28T00:34:25.785Z,97322.00
2018-07-28T00:38:27.955Z,97320.00
2018-07-28T00:42:30.167Z,97314.00
2018-07-28T00:46:32.320Z,97303.00
2018-07-28T00:50:34.536Z,97294.00
2018-07-28T00:54:36.698Z,97290.00
2018-07-28T00:58:38.880Z,97289.00
2018-07-28T01:02:41.072Z,97285.00
2018-07-28T01:06:43.252Z,97283.00
2018-07-28T01:10:45.447Z,97277.00
2018-07-28T01:14:47.735Z,97275.00
2018-07-28T01:18:50.099Z,97267.00
2018-07-28T01:22:52.407Z,97268.00
2018-07-28T01:26:54.620Z,97270.00
2018-07-28T01:30:56.809Z,97264.00
2018-07-28T01:34:58.996Z,97260.00
2018-07-28T01:39:01.226Z,97256.00
2018-07-28T01:43:03.402Z,97246.00
2018-07-28T01:47:05.706Z,97245.00
2018-07-28T01:51:07.867Z,97236.00
2018-07-28T01:55:10.150Z,97230.00
2018-07-28T01:59:12.337Z,97232.00
2018-07-28T02:03:14.506Z,97215.00
2018-07-28T02:07:16.770Z,97214.00
2018-07-28T02:11:18.928Z,97209.00
2018-07-28T02:23:41.832Z,97198.00
2018-07-28T02:27:44.019Z,97197.00
2018-07-28T02:31:46.203Z,97184.00
2018-07-28T02:35:48.368Z,97193.00
2018-07-28T02:39:50.540Z,97183.00
2018-07-28T02:43:52.713Z,97184.00
2018-07-28T02:47:54.904Z,97188.00
2018-07-28T02:51:57.067Z,97182.00
2018-07-28T02:55:59.270Z,97184.00
2018-07-28T03:00:01.459Z,97187.00
2018-07-28T03:04:03.795Z,97182.00
2018-07-28T03:08:06.762Z,97180.00
2018-07-28T03:12:08.953Z,97178.00
2018-07-28T03:16:13.095Z,97175.00
2018-07-28T03:20:15.383Z,97171.00
2018-07-28T03:24:17.559Z,97163.00
2018-07-28T03:28:19.761Z,97170.00
2018-07-28T03:32:21.949Z,97166.00
2018-07-28T03:36:24.117Z,97163.00
2018-07-28T03:40:26.339Z,97162.00
2018-07-28T03:44:28.501Z,97146.00
2018-07-28T03:48:30.692Z,97142.00
2018-07-28T03:52:32.911Z,97145.00
2018-07-28T03:56:35.140Z,97142.00
2018-07-28T04:00:37.299Z,97152.00
2018-07-28T04:04:39.545Z,97149.00
2018-07-28T04:08:41.715Z,97155.00
2018-07-28T04:12:43.982Z,97152.00
2018-07-28T04:16:46.194Z,97147.00
2018-07-28T04:20:48.388Z,97138.00
2018-07-28T04:24:50.542Z,97136.00
2018-07-28T04:28:52.736Z,97133.00
2018-07-28T04:32:55.175Z,97143.00
2018-07-28T04:36:57.455Z,97134.00
2018-07-28T04:40:59.809Z,97137.00
2018-07-28T04:45:02.402Z,97138.00
2018-07-28T04:49:05.038Z,97137.00
2018-07-28T04:53:07.365Z,97151.00
2018-07-28T04:57:09.476Z,97140.00
2018-07-28T05:01:11.628Z,97137.00
2018-07-28T05:05:13.776Z,97136.00
2018-07-28T05:09:15.920Z,97141.00
2018-07-28T05:13:18.088Z,97135.00
2018-07-28T05:17:20.612Z,97127.00
2018-07-28T05:21:22.794Z,97121.00
2018-07-28T05:25:24.988Z,97110.00
2018-07-28T05:29:27.212Z,97108.00
2018-07-28T05:33:29.445Z,97106.00
2018-07-28T05:37:31.624Z,97103.00
2018-07-28T05:41:33.787Z,97114.00
2018-07-28T05:45:36.000Z,97125.00
2018-07-28T05:49:38.178Z,97112.00
2018-07-28T05:53:40.380Z,97128.00
2018-07-28T05:57:42.542Z,97127.00
2018-07-28T06:01:44.945Z,97118.00
2018-07-28T06:05:47.123Z,97121.00
2018-07-28T06:09:49.297Z,97125.00
2018-07-28T06:13:51.492Z,97114.00
2018-07-28T06:17:54.458Z,97114.00
2018-07-28T06:21:57.220Z,97109.00
2018-07-28T06:25:59.419Z,97102.00
2018-07-28T06:30:01.675Z,97111.00
2018-07-28T06:34:03.833Z,97109.00
2018-07-28T06:38:06.049Z,97106.00
2018-07-28T06:42:08.314Z,97107.00
2018-07-28T06:46:10.567Z,97118.00
2018-07-28T06:50:14.856Z,97116.00
2018-07-28T06:54:17.103Z,97114.00
2018-07-28T06:58:19.492Z,97118.00
2018-07-28T07:02:21.671Z,97126.00
2018-07-28T07:06:23.851Z,97136.00
2018-07-28T07:10:26.042Z,97127.00
2018-07-28T07:14:28.230Z,97148.00
2018-07-28T07:18:30.743Z,97148.00
2018-07-28T07:22:33.176Z,97169.00
2018-07-28T07:26:35.355Z,97169.00
2018-07-28T07:30:37.527Z,97200.00
2018-07-28T07:34:39.684Z,97183.00
2018-07-28T07:38:42.842Z,97205.00
2018-07-28T07:42:45.003Z,97211.00
2018-07-28T07:46:47.366Z,97238.00
2018-07-28T07:50:49.558Z,97242.00
2018-07-28T07:54:51.780Z,97263.00
2018-07-28T07:58:53.946Z,97272.00
2018-07-28T08:02:56.110Z,97275.00
2018-07-28T08:06:58.294Z,97266.00
2018-07-28T08:11:00.495Z,97262.00
2018-07-28T08:15:02.791Z,97267.00
2018-07-28T08:19:05.124Z,97272.00
2018-07-28T08:23:07.308Z,97273.00
2018-07-28T08:27:10.350Z,97264.00
2018-07-28T08:31:14.186Z,97243.00
2018-07-28T08:35:16.427Z,97262.00
2018-07-28T08:39:18.631Z,97259.00
2018-07-28T08:43:20.852Z,97257.00
2018-07-28T08:47:23.006Z,97254.00
2018-07-28T08:51:25.223Z,97249.00
2018-07-28T08:55:27.404Z,97236.00
2018-07-28T08:59:29.584Z,97254.00
2018-07-28T09:03:31.779Z,97259.00
2018-07-28T09:07:33.995Z,97246.00
2018-07-28T09:11:36.211Z,97253.00
2018-07-28T09:15:38.383Z,97246.00
2018-07-28T09:19:40.658Z,97233.00
2018-07-28T09:23:42.926Z,97220.00
2018-07-28T09:27:45.110Z,97211.00
2018-07-28T09:31:47.291Z,97244.00
2018-07-28T09:35:49.455Z,97277.00
2018-07-28T09:39:51.799Z,97286.00
2018-07-28T09:43:53.953Z,97295.00
2018-07-28T09:47:56.165Z,97294.00
2018-07-28T09:51:58.312Z,97292.00
2018-07-28T09:56:00.535Z,97287.00
2018-07-28T10:00:02.767Z,97289.00
2018-07-28T10:04:04.950Z,97302.00
2018-07-28T10:08:07.147Z,97306.00
2018-07-28T10:12:09.508Z,97303.00
2018-07-28T10:16:11.799Z,97301.00
2018-07-28T10:20:13.915Z,97309.00
2018-07-28T10:24:16.084Z,97304.00
2018-07-28T10:28:18.310Z,97303.00
2018-07-28T10:32:20.488Z,97297.00
2018-07-28T10:36:22.696Z,97296.00
2018-07-28T10:40:24.849Z,97290.00
2018-07-28T10:44:27.299Z,97292.00
2018-07-28T10:48:29.570Z,97296.00
2018-07-28T10:52:31.725Z,97297.00
2018-07-28T10:56:33.923Z,97291.00
2018-07-28T11:00:36.197Z,97296.00
2018-07-28T11:04:38.417Z,97298.00
2018-07-28T11:08:40.607Z,97293.00
2018-07-28T11:12:42.859Z,97285.00
2018-07-28T11:16:45.038Z,97286.00
2018-07-28T11:20:47.255Z,97280.00
2018-07-28T11:24:49.776Z,97280.00
2018-07-28T11:28:52.803Z,97282.00
2018-07-28T11:33:06.520Z,97279.00
2018-07-28T11:38:18.087Z,97272.00
2018-07-28T11:42:31.706Z,97267.00
2018-07-28T11:46:33.899Z,97271.00
2018-07-28T11:50:36.105Z,97255.00
2018-07-28T11:54:38.283Z,97254.00
2018-07-28T11:58:40.916Z,97246.00
2018-07-28T12:02:43.164Z,97264.00
2018-07-28T12:06:45.368Z,97261.00
2018-07-28T12:10:47.556Z,97262.00
2018-07-28T12:14:49.895Z,97256.00
2018-07-28T12:18:52.134Z,97265.00
2018-07-28T12:22:54.363Z,97274.00
2018-07-28T12:26:56.591Z,97283.00
2018-07-28T12:30:58.879Z,97283.00
2018-07-28T12:35:01.224Z,97284.00
2018-07-28T12:39:05.419Z,97296.00
2018-07-28T12:43:07.645Z,97299.00
2018-07-28T12:47:09.824Z,97292.00
2018-07-28T12:51:12.036Z,97287.00
2018-07-28T12:55:14.349Z,97288.00
2018-07-28T12:59:16.494Z,97292.00
2018-07-28T13:03:18.663Z,97303.00
2018-07-28T13:07:21.611Z,97303.00
2018-07-28T13:11:23.855Z,97307.00
2018-07-28T13:15:26.907Z,97304.00
2018-07-28T13:19:29.388Z,97303.00
2018-07-28T13:23:31.932Z,97323.00
2018-07-28T13:27:34.419Z,97317.00
2018-07-28T13:31:36.685Z,97321.00
2018-07-28T13:35:39.088Z,97324.00
2018-07-28T13:39:41.320Z,97326.00
2018-07-28T13:43:44.614Z,97325.00
2018-07-28T13:47:46.879Z,97336.00
2018-07-28T13:51:49.193Z,97338.00
2018-07-28T13:55:51.566Z,97348.00
2018-07-28T13:59:53.936Z,97344.00
2018-07-28T14:03:56.262Z,97344.00
2018-07-28T14:07:58.564Z,97335.00
2018-07-28T14:12:00.902Z,97332.00
2018-07-28T14:16:03.268Z,97313.00
2018-07-28T14:20:06.281Z,97317.00
2018-07-28T14:24:08.588Z,97310.00
2018-07-28T14:28:10.833Z,97311.00
2018-07-28T14:32:13.128Z,97326.00
2018-07-28T14:36:15.351Z,97330.00
2018-07-28T14:40:17.595Z,97328.00
2018-07-28T14:44:20.698Z,97317.00
2018-07-28T14:48:22.898Z,97326.00
2018-07-28T14:52:25.264Z,97315.00
2018-07-28T14:56:27.435Z,97313.00
2018-07-28T15:00:29.708Z,97327.00
2018-07-28T15:04:32.901Z,97351.00
2018-07-28T15:08:36.308Z,97354.00
2018-07-28T15:12:38.575Z,97362.00
2018-07-28T15:16:40.888Z,97356.00
2018-07-28T15:20:43.180Z,97336.00
2018-07-28T15:24:45.379Z,97356.00
2018-07-28T15:28:49.538Z,97355.00
2018-07-28T15:32:51.692Z,97364.00
2018-07-28T15:36:53.951Z,97352.00
2018-07-28T15:40:56.110Z,97366.00
2018-07-28T15:44:58.346Z,97368.00
2018-07-28T15:49:01.000Z,97360.00
2018-07-28T15:53:03.224Z,97359.00
2018-07-28T15:57:06.090Z,97359.00
2018-07-28T16:01:08.342Z,97352.00
2018-07-28T16:05:10.641Z,97360.00
2018-07-28T16:09:12.907Z,97357.00
2018-07-28T16:13:15.309Z,97363.00
2018-07-28T16:17:17.586Z,97362.00
2018-07-28T16:21:19.821Z,97358.00
2018-07-28T16:25:22.134Z,97361.00
2018-07-28T16:29:24.437Z,97366.00
2018-07-28T16:33:26.706Z,97373.00
2018-07-28T16:37:28.956Z,97377.00
2018-07-28T16:41:31.179Z,97390.00
2018-07-28T16:45:33.412Z,97394.00
2018-07-28T16:49:35.684Z,97402.00
2018-07-28T16:53:37.875Z,97396.00
2018-07-28T16:57:40.104Z,97412.00
2018-07-28T17:01:42.415Z,97416.00
2018-07-28T17:05:44.679Z,97428.00
2018-07-28T17:09:46.877Z,97426.00
2018-07-28T17:13:49.476Z,97433.00
2018-07-28T17:17:51.727Z,97439.00
2018-07-28T17:21:53.913Z,97451.00
2018-07-28T17:25:56.169Z,97448.00
2018-07-28T17:29:58.377Z,97457.00
2018-07-28T17:34:00.572Z,97460.00
2018-07-28T17:38:02.823Z,97469.00
2018-07-28T17:42:05.097Z,97469.00
2018-07-28T17:46:07.403Z,97478.00
2018-07-28T17:50:09.677Z,97485.00
2018-07-28T17:54:11.850Z,97478.00
2018-07-28T17:58:14.117Z,97485.00
2018-07-28T18:02:16.219Z,97494.00
2018-07-28T18:06:18.471Z,97501.00
2018-07-28T18:10:21.070Z,97501.00
2018-07-28T18:14:23.348Z,97492.00
2018-07-28T18:18:25.548Z,97509.00
2018-07-28T18:22:27.732Z,97511.00
2018-07-28T18:26:31.796Z,97510.00
2018-07-28T18:30:34.112Z,97511.00
2018-07-28T18:34:36.265Z,97514.00
2018-07-28T18:38:38.491Z,97517.00
2018-07-28T18:42:41.284Z,97523.00
2018-07-28T18:46:43.489Z,97531.00
2018-07-28T18:50:45.750Z,97542.00
2018-07-28T18:54:48.297Z,97539.00
2018-07-28T18:58:50.638Z,97543.00
2018-07-28T19:02:52.859Z,97548.00
2018-07-28T19:06:55.087Z,97552.00
2018-07-28T19:10:57.451Z,97553.00
2018-07-28T19:14:59.923Z,97554.00
2018-07-28T19:19:08.072Z,97567.00
2018-07-28T19:23:17.027Z,97575.00
2018-07-28T19:27:19.296Z,97579.00
2018-07-28T19:31:21.651Z,97592.00
2018-07-28T19:35:27.957Z,97597.00
2018-07-28T19:39:30.222Z,97605.00
2018-07-28T19:43:32.572Z,97615.00
2018-07-28T19:47:34.848Z,97621.00
2018-07-28T19:51:37.439Z,97617.00
2018-07-28T19:55:39.701Z,97625.00
2018-07-28T19:59:42.035Z,97634.00
2018-07-28T20:03:44.302Z,97653.00
2018-07-28T20:07:46.563Z,97645.00
2018-07-28T20:11:48.807Z,97648.00
2018-07-28T20:15:51.045Z,97659.00
2018-07-28T20:19:53.307Z,97662.00
2018-07-28T20:23:55.815Z,97657.00
2018-07-28T20:27:58.125Z,97660.00
2018-07-28T20:32:01.185Z,97667.00
2018-07-28T20:36:03.373Z,97664.00
2018-07-28T20:40:05.700Z,97661.00
2018-07-28T20:44:07.999Z,97665.00
2018-07-28T20:56:30.708Z,97679.00
2018-07-28T21:00:33.295Z,97672.00
2018-07-28T21:04:35.538Z,97673.00
2018-07-28T21:08:37.794Z,97683.00
2018-07-28T21:12:40.269Z,97675.00
2018-07-28T21:16:42.492Z,97679.00
2018-07-28T21:20:44.930Z,97682.00
2018-07-28T21:24:48.563Z,97680.00
2018-07-28T21:28:50.844Z,97686.00
2018-07-28T21:32:53.309Z,97697.00
2018-07-28T21:36:55.615Z,97696.00
2018-07-28T21:40:57.909Z,97707.00
2018-07-28T21:45:00.369Z,97701.00
2018-07-28T21:49:02.699Z,97705.00
2018-07-28T21:53:05.133Z,97709.00
2018-07-28T21:57:07.413Z,97702.00
2018-07-28T22:01:15.578Z,97706.00
2018-07-28T22:05:19.516Z,97713.00
2018-07-28T22:09:21.848Z,97702.00
2018-07-28T22:13:24.954Z,97710.00
2018-07-28T22:17:27.333Z,97710.00
2018-07-28T22:21:29.610Z,97702.00
2018-07-28T22:25:31.864Z,97711.00
2018-07-28T22:29:34.100Z,97720.00
2018-07-28T22:33:36.304Z,97729.00
2018-07-28T22:37:39.426Z,97731.00
2018-07-28T22:41:41.632Z,97735.00
2018-07-28T22:45:43.896Z,97728.00
2018-07-28T22:49:46.116Z,97738.00
2018-07-28T22:53:48.362Z,97738.00
2018-07-28T22:57:50.664Z,97739.00
2018-07-28T23:01:53.036Z,97752.00
2018-07-28T23:05:55.560Z,97745.00
2018-07-28T23:09:57.796Z,97748.00
2018-07-28T23:14:00.030Z,97749.00
2018-07-28T23:18:02.507Z,97756.00
2018-07-28T23:22:05.801Z,97756.00
2018-07-28T23:26:08.105Z,97746.00
2018-07-28T23:30:11.003Z,97758.00
2018-07-28T23:34:13.196Z,97765.00
2018-07-28T23:38:15.451Z,97772.00
2018-07-28T23:42:17.664Z,97774.00
2018-07-28T23:46:19.884Z,97761.00
2018-07-28T23:50:22.078Z,97786.00
2018-07-28T23:54:24.341Z,97779.00
2018-07-28T23:58:26.555Z,97775.00
